sensor_id;sensor_type;location;lat;lon;timestamp;P1;durP1;ratioP1;P2;durP2;ratioP2
12302;SDS011;6214;48.012;7.862;2023-07-28T00:00:48;4.75;;;1.50;;
12302;SDS011;6214;48.012;7.862;2023-07-28T00:03:15;5.28;;;1.75;;
12302;SDS011;6214;48.012;7.862;2023-07-28T00:05:42;4.75;;;1.60;;
12302;SDS011;6214;48.012;7.862;2023-07-28T00:08:09;5.50;;;1.70;;
12302;SDS011;6214;48.012;7.862;2023-07-28T00:10:42;4.60;;;1.75;;
12302;SDS011;6214;48.012;7.862;2023-07-28T00:13:09;5.60;;;1.70;;
12302;SDS011;6214;48.012;7.862;2023-07-28T00:15:36;4.70;;;1.67;;
12302;SDS011;6214;48.012;7.862;2023-07-28T00:18:03;5.20;;;1.80;;
12302;SDS011;6214;48.012;7.862;2023-07-28T00:20:30;4.70;;;1.75;;
12302;SDS011;6214;48.012;7.862;2023-07-28T00:22:57;4.93;;;1.80;;
12302;SDS011;6214;48.012;7.862;2023-07-28T00:25:25;5.20;;;1.80;;
12302;SDS011;6214;48.012;7.862;2023-07-28T00:27:52;5.30;;;1.90;;
12302;SDS011;6214;48.012;7.862;2023-07-28T00:30:19;5.57;;;2.22;;
12302;SDS011;6214;48.012;7.862;2023-07-28T00:32:46;5.75;;;2.00;;
12302;SDS011;6214;48.012;7.862;2023-07-28T00:35:13;5.90;;;1.90;;
12302;SDS011;6214;48.012;7.862;2023-07-28T00:37:40;5.43;;;1.90;;
12302;SDS011;6214;48.012;7.862;2023-07-28T00:40:07;4.82;;;1.70;;
12302;SDS011;6214;48.012;7.862;2023-07-28T00:42:34;5.60;;;1.80;;
12302;SDS011;6214;48.012;7.862;2023-07-28T00:45:02;5.38;;;1.90;;
12302;SDS011;6214;48.012;7.862;2023-07-28T00:47:30;4.80;;;1.80;;
12302;SDS011;6214;48.012;7.862;2023-07-28T00:49:57;4.93;;;1.70;;
12302;SDS011;6214;48.012;7.862;2023-07-28T00:52:24;5.13;;;1.80;;
12302;SDS011;6214;48.012;7.862;2023-07-28T00:54:51;5.80;;;2.10;;
12302;SDS011;6214;48.012;7.862;2023-07-28T00:57:19;5.30;;;1.80;;
12302;SDS011;6214;48.012;7.862;2023-07-28T00:59:46;4.90;;;1.90;;
12302;SDS011;6214;48.012;7.862;2023-07-28T01:02:16;4.85;;;1.83;;
12302;SDS011;6214;48.012;7.862;2023-07-28T01:04:44;4.80;;;1.90;;
12302;SDS011;6214;48.012;7.862;2023-07-28T01:07:15;4.80;;;1.95;;
12302;SDS011;6214;48.012;7.862;2023-07-28T01:12:27;5.25;;;1.80;;
12302;SDS011;6214;48.012;7.862;2023-07-28T01:14:54;4.93;;;2.00;;
12302;SDS011;6214;48.012;7.862;2023-07-28T01:17:21;5.40;;;1.73;;
12302;SDS011;6214;48.012;7.862;2023-07-28T01:19:51;4.90;;;1.87;;
12302;SDS011;6214;48.012;7.862;2023-07-28T01:27:54;4.80;;;1.80;;
12302;SDS011;6214;48.012;7.862;2023-07-28T01:30:24;4.93;;;1.80;;
12302;SDS011;6214;48.012;7.862;2023-07-28T01:32:56;5.70;;;2.13;;
12302;SDS011;6214;48.012;7.862;2023-07-28T01:35:25;5.10;;;1.73;;
12302;SDS011;6214;48.012;7.862;2023-07-28T01:37:52;4.80;;;1.80;;
12302;SDS011;6214;48.012;7.862;2023-07-28T01:40:19;5.00;;;1.77;;
12302;SDS011;6214;48.012;7.862;2023-07-28T01:42:47;5.20;;;1.70;;
12302;SDS011;6214;48.012;7.862;2023-07-28T01:45:14;5.20;;;1.80;;
12302;SDS011;6214;48.012;7.862;2023-07-28T01:47:40;4.67;;;1.70;;
12302;SDS011;6214;48.012;7.862;2023-07-28T01:50:08;5.70;;;2.00;;
12302;SDS011;6214;48.012;7.862;2023-07-28T01:52:35;5.30;;;2.00;;
12302;SDS011;6214;48.012;7.862;2023-07-28T01:55:02;5.30;;;2.00;;
12302;SDS011;6214;48.012;7.862;2023-07-28T01:57:38;5.60;;;1.80;;
12302;SDS011;6214;48.012;7.862;2023-07-28T02:00:06;5.00;;;1.80;;
12302;SDS011;6214;48.012;7.862;2023-07-28T02:02:34;5.35;;;1.98;;
12302;SDS011;6214;48.012;7.862;2023-07-28T02:05:01;4.60;;;1.70;;
12302;SDS011;6214;48.012;7.862;2023-07-28T02:07:28;4.90;;;1.80;;
12302;SDS011;6214;48.012;7.862;2023-07-28T02:09:55;6.00;;;1.87;;
12302;SDS011;6214;48.012;7.862;2023-07-28T02:12:22;5.40;;;2.30;;
12302;SDS011;6214;48.012;7.862;2023-07-28T02:14:49;5.40;;;1.90;;
12302;SDS011;6214;48.012;7.862;2023-07-28T02:17:17;5.10;;;2.08;;
12302;SDS011;6214;48.012;7.862;2023-07-28T02:19:43;4.70;;;1.70;;
12302;SDS011;6214;48.012;7.862;2023-07-28T02:22:10;4.90;;;1.80;;
12302;SDS011;6214;48.012;7.862;2023-07-28T02:24:37;5.53;;;2.17;;
12302;SDS011;6214;48.012;7.862;2023-07-28T02:27:04;4.95;;;1.77;;
12302;SDS011;6214;48.012;7.862;2023-07-28T02:29:32;5.35;;;1.95;;
12302;SDS011;6214;48.012;7.862;2023-07-28T02:31:59;5.30;;;1.90;;
12302;SDS011;6214;48.012;7.862;2023-07-28T02:34:26;6.00;;;1.90;;
12302;SDS011;6214;48.012;7.862;2023-07-28T02:36:52;5.45;;;2.05;;
12302;SDS011;6214;48.012;7.862;2023-07-28T02:39:20;5.93;;;2.10;;
12302;SDS011;6214;48.012;7.862;2023-07-28T02:41:47;5.45;;;1.90;;
12302;SDS011;6214;48.012;7.862;2023-07-28T02:44:14;5.30;;;2.00;;
12302;SDS011;6214;48.012;7.862;2023-07-28T02:46:41;4.80;;;1.90;;
12302;SDS011;6214;48.012;7.862;2023-07-28T02:49:08;5.93;;;2.20;;
12302;SDS011;6214;48.012;7.862;2023-07-28T02:51:35;6.60;;;1.90;;
12302;SDS011;6214;48.012;7.862;2023-07-28T02:54:02;4.43;;;1.63;;
12302;SDS011;6214;48.012;7.862;2023-07-28T02:56:30;6.80;;;2.40;;
12302;SDS011;6214;48.012;7.862;2023-07-28T02:59:01;5.40;;;2.00;;
12302;SDS011;6214;48.012;7.862;2023-07-28T03:01:31;5.60;;;2.20;;
12302;SDS011;6214;48.012;7.862;2023-07-28T03:04:01;6.20;;;1.92;;
12302;SDS011;6214;48.012;7.862;2023-07-28T03:06:29;5.50;;;1.85;;
12302;SDS011;6214;48.012;7.862;2023-07-28T03:08:57;4.80;;;1.80;;
12302;SDS011;6214;48.012;7.862;2023-07-28T03:11:25;5.40;;;1.80;;
12302;SDS011;6214;48.012;7.862;2023-07-28T03:13:52;5.78;;;1.80;;
12302;SDS011;6214;48.012;7.862;2023-07-28T03:16:20;5.43;;;1.87;;
12302;SDS011;6214;48.012;7.862;2023-07-28T03:18:47;5.18;;;2.08;;
12302;SDS011;6214;48.012;7.862;2023-07-28T03:21:14;5.93;;;1.90;;
12302;SDS011;6214;48.012;7.862;2023-07-28T03:23:41;4.88;;;1.70;;
12302;SDS011;6214;48.012;7.862;2023-07-28T03:26:08;5.45;;;1.95;;
12302;SDS011;6214;48.012;7.862;2023-07-28T03:28:35;5.05;;;1.80;;
12302;SDS011;6214;48.012;7.862;2023-07-28T03:31:02;6.40;;;2.20;;
12302;SDS011;6214;48.012;7.862;2023-07-28T03:33:29;5.20;;;1.80;;
12302;SDS011;6214;48.012;7.862;2023-07-28T03:35:56;5.30;;;1.80;;
12302;SDS011;6214;48.012;7.862;2023-07-28T03:38:23;5.40;;;2.30;;
12302;SDS011;6214;48.012;7.862;2023-07-28T03:40:50;5.18;;;1.77;;
12302;SDS011;6214;48.012;7.862;2023-07-28T03:43:17;5.30;;;1.90;;
12302;SDS011;6214;48.012;7.862;2023-07-28T03:45:44;4.90;;;2.10;;
12302;SDS011;6214;48.012;7.862;2023-07-28T03:48:11;5.97;;;1.90;;
12302;SDS011;6214;48.012;7.862;2023-07-28T03:50:38;6.00;;;1.90;;
12302;SDS011;6214;48.012;7.862;2023-07-28T03:53:05;5.05;;;1.90;;
12302;SDS011;6214;48.012;7.862;2023-07-28T03:55:32;5.20;;;1.90;;
12302;SDS011;6214;48.012;7.862;2023-07-28T03:57:59;5.68;;;2.40;;
12302;SDS011;6214;48.012;7.862;2023-07-28T04:00:26;5.20;;;1.98;;
12302;SDS011;6214;48.012;7.862;2023-07-28T04:02:53;5.32;;;1.88;;
12302;SDS011;6214;48.012;7.862;2023-07-28T04:05:20;4.57;;;1.83;;
12302;SDS011;6214;48.012;7.862;2023-07-28T04:07:48;5.70;;;1.70;;
12302;SDS011;6214;48.012;7.862;2023-07-28T04:10:15;5.30;;;1.90;;
12302;SDS011;6214;48.012;7.862;2023-07-28T04:12:42;4.90;;;1.70;;
12302;SDS011;6214;48.012;7.862;2023-07-28T04:15:09;4.70;;;1.70;;
12302;SDS011;6214;48.012;7.862;2023-07-28T04:17:36;5.60;;;2.10;;
12302;SDS011;6214;48.012;7.862;2023-07-28T04:20:03;5.30;;;1.70;;
12302;SDS011;6214;48.012;7.862;2023-07-28T04:22:32;4.90;;;1.80;;
12302;SDS011;6214;48.012;7.862;2023-07-28T04:24:59;5.17;;;1.80;;
12302;SDS011;6214;48.012;7.862;2023-07-28T04:27:26;4.90;;;1.80;;
12302;SDS011;6214;48.012;7.862;2023-07-28T04:29:56;5.13;;;1.88;;
12302;SDS011;6214;48.012;7.862;2023-07-28T04:32:23;6.60;;;2.00;;
12302;SDS011;6214;48.012;7.862;2023-07-28T04:34:51;4.95;;;1.73;;
12302;SDS011;6214;48.012;7.862;2023-07-28T04:37:18;5.15;;;2.20;;
12302;SDS011;6214;48.012;7.862;2023-07-28T04:39:45;6.07;;;1.98;;
12302;SDS011;6214;48.012;7.862;2023-07-28T04:42:12;5.50;;;1.90;;
12302;SDS011;6214;48.012;7.862;2023-07-28T04:44:39;5.00;;;1.70;;
12302;SDS011;6214;48.012;7.862;2023-07-28T04:47:06;5.70;;;1.92;;
12302;SDS011;6214;48.012;7.862;2023-07-28T04:49:33;4.65;;;1.60;;
12302;SDS011;6214;48.012;7.862;2023-07-28T04:52:00;4.90;;;1.70;;
12302;SDS011;6214;48.012;7.862;2023-07-28T04:54:27;5.40;;;1.80;;
12302;SDS011;6214;48.012;7.862;2023-07-28T04:56:54;4.88;;;1.90;;
12302;SDS011;6214;48.012;7.862;2023-07-28T04:59:21;4.85;;;1.70;;
12302;SDS011;6214;48.012;7.862;2023-07-28T05:01:48;5.10;;;1.67;;
12302;SDS011;6214;48.012;7.862;2023-07-28T05:04:15;5.50;;;1.60;;
12302;SDS011;6214;48.012;7.862;2023-07-28T05:06:42;5.07;;;1.67;;
12302;SDS011;6214;48.012;7.862;2023-07-28T05:09:09;5.00;;;1.60;;
12302;SDS011;6214;48.012;7.862;2023-07-28T05:11:36;4.90;;;1.70;;
12302;SDS011;6214;48.012;7.862;2023-07-28T05:14:04;4.57;;;1.63;;
12302;SDS011;6214;48.012;7.862;2023-07-28T05:16:32;4.70;;;1.55;;
12302;SDS011;6214;48.012;7.862;2023-07-28T05:18:59;5.05;;;1.60;;
12302;SDS011;6214;48.012;7.862;2023-07-28T05:21:26;4.73;;;1.53;;
12302;SDS011;6214;48.012;7.862;2023-07-28T05:23:53;5.18;;;1.60;;
12302;SDS011;6214;48.012;7.862;2023-07-28T05:26:20;4.65;;;1.35;;
12302;SDS011;6214;48.012;7.862;2023-07-28T05:28:47;5.10;;;1.70;;
12302;SDS011;6214;48.012;7.862;2023-07-28T05:31:14;4.90;;;1.40;;
12302;SDS011;6214;48.012;7.862;2023-07-28T05:33:42;4.90;;;1.60;;
12302;SDS011;6214;48.012;7.862;2023-07-28T05:36:09;5.03;;;1.70;;
12302;SDS011;6214;48.012;7.862;2023-07-28T05:38:36;6.80;;;1.70;;
12302;SDS011;6214;48.012;7.862;2023-07-28T05:41:03;5.40;;;1.63;;
12302;SDS011;6214;48.012;7.862;2023-07-28T05:43:30;5.50;;;1.80;;
12302;SDS011;6214;48.012;7.862;2023-07-28T05:45:58;5.57;;;1.75;;
12302;SDS011;6214;48.012;7.862;2023-07-28T05:48:26;5.60;;;1.80;;
12302;SDS011;6214;48.012;7.862;2023-07-28T05:50:53;5.68;;;1.80;;
12302;SDS011;6214;48.012;7.862;2023-07-28T05:53:21;4.82;;;1.60;;
12302;SDS011;6214;48.012;7.862;2023-07-28T05:55:48;7.18;;;2.00;;
12302;SDS011;6214;48.012;7.862;2023-07-28T05:58:15;4.70;;;1.60;;
12302;SDS011;6214;48.012;7.862;2023-07-28T06:00:42;6.30;;;1.80;;
12302;SDS011;6214;48.012;7.862;2023-07-28T06:03:09;4.50;;;1.45;;
12302;SDS011;6214;48.012;7.862;2023-07-28T06:05:39;5.10;;;1.83;;
12302;SDS011;6214;48.012;7.862;2023-07-28T06:08:09;4.82;;;1.73;;
12302;SDS011;6214;48.012;7.862;2023-07-28T06:10:36;4.70;;;1.70;;
12302;SDS011;6214;48.012;7.862;2023-07-28T06:13:03;4.60;;;1.50;;
12302;SDS011;6214;48.012;7.862;2023-07-28T06:15:31;5.15;;;1.80;;
12302;SDS011;6214;48.012;7.862;2023-07-28T06:18:01;5.10;;;1.80;;
12302;SDS011;6214;48.012;7.862;2023-07-28T06:20:29;4.65;;;1.73;;
12302;SDS011;6214;48.012;7.862;2023-07-28T06:22:56;5.55;;;1.70;;
12302;SDS011;6214;48.012;7.862;2023-07-28T06:25:23;4.50;;;1.40;;
12302;SDS011;6214;48.012;7.862;2023-07-28T06:27:50;5.60;;;1.80;;
12302;SDS011;6214;48.012;7.862;2023-07-28T06:30:17;5.00;;;1.90;;
12302;SDS011;6214;48.012;7.862;2023-07-28T06:32:44;5.10;;;1.80;;
12302;SDS011;6214;48.012;7.862;2023-07-28T06:35:11;4.85;;;1.70;;
12302;SDS011;6214;48.012;7.862;2023-07-28T06:37:38;4.70;;;1.70;;
12302;SDS011;6214;48.012;7.862;2023-07-28T06:40:06;5.70;;;2.10;;
12302;SDS011;6214;48.012;7.862;2023-07-28T06:42:35;4.90;;;1.80;;
12302;SDS011;6214;48.012;7.862;2023-07-28T06:45:03;4.70;;;1.70;;
12302;SDS011;6214;48.012;7.862;2023-07-28T06:47:31;5.30;;;1.80;;
12302;SDS011;6214;48.012;7.862;2023-07-28T06:49:58;5.13;;;1.85;;
12302;SDS011;6214;48.012;7.862;2023-07-28T06:52:25;5.20;;;1.60;;
12302;SDS011;6214;48.012;7.862;2023-07-28T06:54:52;5.90;;;2.10;;
12302;SDS011;6214;48.012;7.862;2023-07-28T06:57:20;5.50;;;1.80;;
12302;SDS011;6214;48.012;7.862;2023-07-28T06:59:47;5.70;;;1.70;;
12302;SDS011;6214;48.012;7.862;2023-07-28T07:02:17;5.28;;;1.88;;
12302;SDS011;6214;48.012;7.862;2023-07-28T07:04:44;5.40;;;1.80;;
12302;SDS011;6214;48.012;7.862;2023-07-28T07:07:11;5.30;;;1.70;;
12302;SDS011;6214;48.012;7.862;2023-07-28T07:09:38;5.03;;;1.70;;
12302;SDS011;6214;48.012;7.862;2023-07-28T07:12:05;5.25;;;1.90;;
12302;SDS011;6214;48.012;7.862;2023-07-28T07:14:33;5.20;;;2.05;;
12302;SDS011;6214;48.012;7.862;2023-07-28T07:17:04;5.80;;;2.10;;
12302;SDS011;6214;48.012;7.862;2023-07-28T07:19:31;5.50;;;2.20;;
12302;SDS011;6214;48.012;7.862;2023-07-28T07:21:59;6.00;;;2.10;;
12302;SDS011;6214;48.012;7.862;2023-07-28T07:24:26;5.10;;;2.00;;
12302;SDS011;6214;48.012;7.862;2023-07-28T07:26:53;5.40;;;2.10;;
12302;SDS011;6214;48.012;7.862;2023-07-28T07:29:20;5.78;;;2.00;;
12302;SDS011;6214;48.012;7.862;2023-07-28T07:31:47;5.50;;;2.35;;
12302;SDS011;6214;48.012;7.862;2023-07-28T07:34:14;5.10;;;2.10;;
12302;SDS011;6214;48.012;7.862;2023-07-28T07:36:42;5.72;;;2.10;;
12302;SDS011;6214;48.012;7.862;2023-07-28T07:39:09;5.38;;;2.15;;
12302;SDS011;6214;48.012;7.862;2023-07-28T07:41:36;5.00;;;2.10;;
12302;SDS011;6214;48.012;7.862;2023-07-28T07:44:03;5.30;;;2.00;;
12302;SDS011;6214;48.012;7.862;2023-07-28T07:46:30;5.80;;;2.10;;
12302;SDS011;6214;48.012;7.862;2023-07-28T07:48:57;5.50;;;2.10;;
12302;SDS011;6214;48.012;7.862;2023-07-28T07:51:24;5.40;;;2.17;;
12302;SDS011;6214;48.012;7.862;2023-07-28T07:53:51;5.97;;;1.80;;
12302;SDS011;6214;48.012;7.862;2023-07-28T07:56:18;4.97;;;2.00;;
12302;SDS011;6214;48.012;7.862;2023-07-28T07:58:45;5.00;;;2.20;;
12302;SDS011;6214;48.012;7.862;2023-07-28T08:01:12;5.28;;;1.92;;
12302;SDS011;6214;48.012;7.862;2023-07-28T08:03:39;5.10;;;1.98;;
12302;SDS011;6214;48.012;7.862;2023-07-28T08:06:07;5.40;;;2.20;;
12302;SDS011;6214;48.012;7.862;2023-07-28T08:08:36;5.30;;;2.20;;
12302;SDS011;6214;48.012;7.862;2023-07-28T08:11:03;5.18;;;2.10;;
12302;SDS011;6214;48.012;7.862;2023-07-28T08:13:30;5.23;;;2.13;;
12302;SDS011;6214;48.012;7.862;2023-07-28T08:15:57;5.30;;;2.20;;
12302;SDS011;6214;48.012;7.862;2023-07-28T08:18:25;5.50;;;2.17;;
12302;SDS011;6214;48.012;7.862;2023-07-28T08:20:52;5.37;;;2.13;;
12302;SDS011;6214;48.012;7.862;2023-07-28T08:23:19;6.13;;;2.17;;
12302;SDS011;6214;48.012;7.862;2023-07-28T08:25:46;5.60;;;2.30;;
12302;SDS011;6214;48.012;7.862;2023-07-28T08:28:13;5.03;;;1.95;;
12302;SDS011;6214;48.012;7.862;2023-07-28T08:30:40;6.00;;;2.30;;
12302;SDS011;6214;48.012;7.862;2023-07-28T08:33:07;5.10;;;1.85;;
12302;SDS011;6214;48.012;7.862;2023-07-28T08:35:34;6.30;;;2.00;;
12302;SDS011;6214;48.012;7.862;2023-07-28T08:38:01;4.90;;;1.80;;
12302;SDS011;6214;48.012;7.862;2023-07-28T08:40:29;5.63;;;2.10;;
12302;SDS011;6214;48.012;7.862;2023-07-28T08:42:56;5.28;;;1.88;;
12302;SDS011;6214;48.012;7.862;2023-07-28T08:45:23;5.70;;;2.10;;
12302;SDS011;6214;48.012;7.862;2023-07-28T08:47:51;5.00;;;1.90;;
12302;SDS011;6214;48.012;7.862;2023-07-28T08:50:18;5.10;;;1.90;;
12302;SDS011;6214;48.012;7.862;2023-07-28T08:52:45;5.30;;;1.60;;
12302;SDS011;6214;48.012;7.862;2023-07-28T08:55:12;5.20;;;1.80;;
12302;SDS011;6214;48.012;7.862;2023-07-28T08:57:39;4.90;;;1.83;;
12302;SDS011;6214;48.012;7.862;2023-07-28T09:00:07;5.10;;;2.00;;
12302;SDS011;6214;48.012;7.862;2023-07-28T09:02:36;4.97;;;1.70;;
12302;SDS011;6214;48.012;7.862;2023-07-28T09:05:03;5.80;;;1.70;;
12302;SDS011;6214;48.012;7.862;2023-07-28T09:07:34;6.00;;;2.00;;
12302;SDS011;6214;48.012;7.862;2023-07-28T09:10:03;5.55;;;2.00;;
12302;SDS011;6214;48.012;7.862;2023-07-28T09:12:33;5.53;;;2.10;;
12302;SDS011;6214;48.012;7.862;2023-07-28T09:15:00;5.03;;;1.55;;
12302;SDS011;6214;48.012;7.862;2023-07-28T09:17:27;5.55;;;1.80;;
12302;SDS011;6214;48.012;7.862;2023-07-28T09:20:07;5.60;;;2.10;;
12302;SDS011;6214;48.012;7.862;2023-07-28T09:22:43;4.80;;;1.70;;
12302;SDS011;6214;48.012;7.862;2023-07-28T09:25:13;5.20;;;2.00;;
12302;SDS011;6214;48.012;7.862;2023-07-28T09:27:51;5.30;;;1.63;;
12302;SDS011;6214;48.012;7.862;2023-07-28T09:30:19;6.85;;;2.03;;
12302;SDS011;6214;48.012;7.862;2023-07-28T09:32:49;5.20;;;1.80;;
12302;SDS011;6214;48.012;7.862;2023-07-28T09:35:20;5.40;;;1.73;;
12302;SDS011;6214;48.012;7.862;2023-07-28T09:37:49;5.43;;;1.80;;
12302;SDS011;6214;48.012;7.862;2023-07-28T09:40:22;5.10;;;1.90;;
12302;SDS011;6214;48.012;7.862;2023-07-28T09:42:49;5.27;;;1.80;;
12302;SDS011;6214;48.012;7.862;2023-07-28T09:45:21;5.50;;;2.00;;
12302;SDS011;6214;48.012;7.862;2023-07-28T09:48:02;5.25;;;2.10;;
12302;SDS011;6214;48.012;7.862;2023-07-28T09:50:35;5.25;;;2.20;;
12302;SDS011;6214;48.012;7.862;2023-07-28T09:53:04;5.60;;;2.10;;
12302;SDS011;6214;48.012;7.862;2023-07-28T09:55:38;5.00;;;2.17;;
12302;SDS011;6214;48.012;7.862;2023-07-28T09:58:09;5.03;;;1.90;;
12302;SDS011;6214;48.012;7.862;2023-07-28T10:00:39;5.00;;;2.10;;
12302;SDS011;6214;48.012;7.862;2023-07-28T10:03:07;6.30;;;2.17;;
12302;SDS011;6214;48.012;7.862;2023-07-28T10:05:36;5.18;;;2.05;;
12302;SDS011;6214;48.012;7.862;2023-07-28T10:08:04;5.35;;;2.13;;
12302;SDS011;6214;48.012;7.862;2023-07-28T10:10:32;5.03;;;2.03;;
12302;SDS011;6214;48.012;7.862;2023-07-28T10:12:59;5.18;;;2.00;;
12302;SDS011;6214;48.012;7.862;2023-07-28T10:15:28;5.00;;;1.80;;
12302;SDS011;6214;48.012;7.862;2023-07-28T10:17:56;5.47;;;1.93;;
12302;SDS011;6214;48.012;7.862;2023-07-28T10:20:46;5.20;;;2.10;;
12302;SDS011;6214;48.012;7.862;2023-07-28T10:23:22;5.20;;;1.70;;
12302;SDS011;6214;48.012;7.862;2023-07-28T10:25:59;5.63;;;2.00;;
12302;SDS011;6214;48.012;7.862;2023-07-28T10:28:29;5.47;;;2.10;;
12302;SDS011;6214;48.012;7.862;2023-07-28T10:31:10;6.13;;;2.10;;
12302;SDS011;6214;48.012;7.862;2023-07-28T10:33:39;5.85;;;2.05;;
12302;SDS011;6214;48.012;7.862;2023-07-28T10:36:15;5.50;;;2.10;;
12302;SDS011;6214;48.012;7.862;2023-07-28T10:39:02;5.28;;;2.20;;
12302;SDS011;6214;48.012;7.862;2023-07-28T10:42:07;5.20;;;2.20;;
12302;SDS011;6214;48.012;7.862;2023-07-28T10:44:36;5.23;;;2.20;;
12302;SDS011;6214;48.012;7.862;2023-07-28T10:47:09;5.85;;;2.35;;
12302;SDS011;6214;48.012;7.862;2023-07-28T10:49:37;6.10;;;2.40;;
12302;SDS011;6214;48.012;7.862;2023-07-28T10:52:04;6.20;;;2.20;;
12302;SDS011;6214;48.012;7.862;2023-07-28T10:54:32;5.40;;;2.10;;
12302;SDS011;6214;48.012;7.862;2023-07-28T10:57:03;5.32;;;2.17;;
12302;SDS011;6214;48.012;7.862;2023-07-28T10:59:32;6.40;;;2.30;;
12302;SDS011;6214;48.012;7.862;2023-07-28T11:01:59;5.22;;;2.10;;
12302;SDS011;6214;48.012;7.862;2023-07-28T11:04:26;5.47;;;2.40;;
12302;SDS011;6214;48.012;7.862;2023-07-28T11:06:53;5.10;;;2.10;;
12302;SDS011;6214;48.012;7.862;2023-07-28T11:09:22;5.05;;;2.00;;
12302;SDS011;6214;48.012;7.862;2023-07-28T11:11:52;5.47;;;2.10;;
12302;SDS011;6214;48.012;7.862;2023-07-28T11:14:19;5.20;;;2.20;;
12302;SDS011;6214;48.012;7.862;2023-07-28T11:16:47;5.32;;;2.20;;
12302;SDS011;6214;48.012;7.862;2023-07-28T11:19:15;6.90;;;2.40;;
12302;SDS011;6214;48.012;7.862;2023-07-28T11:21:52;6.10;;;2.10;;
12302;SDS011;6214;48.012;7.862;2023-07-28T11:24:21;5.07;;;2.28;;
12302;SDS011;6214;48.012;7.862;2023-07-28T11:26:49;5.13;;;2.30;;
12302;SDS011;6214;48.012;7.862;2023-07-28T11:29:17;6.60;;;2.40;;
12302;SDS011;6214;48.012;7.862;2023-07-28T11:31:45;6.10;;;2.37;;
12302;SDS011;6214;48.012;7.862;2023-07-28T11:34:13;5.50;;;2.55;;
12302;SDS011;6214;48.012;7.862;2023-07-28T11:36:41;5.32;;;2.47;;
12302;SDS011;6214;48.012;7.862;2023-07-28T11:39:08;7.10;;;2.55;;
12302;SDS011;6214;48.012;7.862;2023-07-28T11:41:37;5.68;;;2.55;;
12302;SDS011;6214;48.012;7.862;2023-07-28T11:44:05;5.75;;;2.50;;
12302;SDS011;6214;48.012;7.862;2023-07-28T11:46:34;5.22;;;2.25;;
12302;SDS011;6214;48.012;7.862;2023-07-28T11:49:15;6.20;;;2.50;;
12302;SDS011;6214;48.012;7.862;2023-07-28T11:51:47;5.78;;;2.50;;
12302;SDS011;6214;48.012;7.862;2023-07-28T11:54:17;5.63;;;2.90;;
12302;SDS011;6214;48.012;7.862;2023-07-28T11:56:50;6.00;;;2.40;;
12302;SDS011;6214;48.012;7.862;2023-07-28T11:59:20;5.63;;;2.70;;
12302;SDS011;6214;48.012;7.862;2023-07-28T12:01:57;6.18;;;2.90;;
12302;SDS011;6214;48.012;7.862;2023-07-28T12:04:29;5.40;;;2.50;;
12302;SDS011;6214;48.012;7.862;2023-07-28T12:07:04;6.30;;;2.40;;
12302;SDS011;6214;48.012;7.862;2023-07-28T12:09:46;7.47;;;2.70;;
12302;SDS011;6214;48.012;7.862;2023-07-28T12:12:30;5.40;;;2.40;;
12302;SDS011;6214;48.012;7.862;2023-07-28T12:15:29;6.65;;;2.70;;
12302;SDS011;6214;48.012;7.862;2023-07-28T12:20:38;5.72;;;2.47;;
12302;SDS011;6214;48.012;7.862;2023-07-28T12:23:06;5.90;;;2.58;;
12302;SDS011;6214;48.012;7.862;2023-07-28T12:25:36;5.90;;;3.00;;
12302;SDS011;6214;48.012;7.862;2023-07-28T12:28:04;5.20;;;2.50;;
12302;SDS011;6214;48.012;7.862;2023-07-28T12:30:44;5.30;;;2.63;;
12302;SDS011;6214;48.012;7.862;2023-07-28T12:33:11;6.50;;;2.90;;
12302;SDS011;6214;48.012;7.862;2023-07-28T12:35:41;5.88;;;2.70;;
12302;SDS011;6214;48.012;7.862;2023-07-28T12:38:11;5.85;;;2.80;;
12302;SDS011;6214;48.012;7.862;2023-07-28T12:40:41;5.80;;;3.10;;
12302;SDS011;6214;48.012;7.862;2023-07-28T12:43:10;6.85;;;2.90;;
12302;SDS011;6214;48.012;7.862;2023-07-28T12:45:57;6.00;;;2.70;;
12302;SDS011;6214;48.012;7.862;2023-07-28T12:48:27;5.83;;;2.87;;
12302;SDS011;6214;48.012;7.862;2023-07-28T12:50:55;5.20;;;2.50;;
12302;SDS011;6214;48.012;7.862;2023-07-28T12:53:25;5.70;;;2.75;;
12302;SDS011;6214;48.012;7.862;2023-07-28T12:55:52;6.25;;;2.80;;
12302;SDS011;6214;48.012;7.862;2023-07-28T12:58:22;5.70;;;2.50;;
12302;SDS011;6214;48.012;7.862;2023-07-28T13:00:51;5.47;;;2.50;;
12302;SDS011;6214;48.012;7.862;2023-07-28T13:03:22;5.50;;;2.20;;
12302;SDS011;6214;48.012;7.862;2023-07-28T13:05:49;4.95;;;2.10;;
12302;SDS011;6214;48.012;7.862;2023-07-28T13:08:16;5.30;;;2.10;;
12302;SDS011;6214;48.012;7.862;2023-07-28T13:10:44;5.40;;;2.10;;
12302;SDS011;6214;48.012;7.862;2023-07-28T13:13:13;5.22;;;2.20;;
12302;SDS011;6214;48.012;7.862;2023-07-28T13:15:40;5.78;;;2.15;;
12302;SDS011;6214;48.012;7.862;2023-07-28T13:18:08;5.47;;;2.10;;
12302;SDS011;6214;48.012;7.862;2023-07-28T13:20:35;5.80;;;2.40;;
12302;SDS011;6214;48.012;7.862;2023-07-28T13:23:02;5.70;;;2.30;;
12302;SDS011;6214;48.012;7.862;2023-07-28T13:25:29;6.00;;;2.28;;
12302;SDS011;6214;48.012;7.862;2023-07-28T13:27:56;6.00;;;2.30;;
12302;SDS011;6214;48.012;7.862;2023-07-28T13:30:23;5.50;;;2.30;;
12302;SDS011;6214;48.012;7.862;2023-07-28T13:32:54;5.40;;;2.42;;
12302;SDS011;6214;48.012;7.862;2023-07-28T13:35:21;5.47;;;2.20;;
12302;SDS011;6214;48.012;7.862;2023-07-28T13:37:48;5.13;;;1.95;;
12302;SDS011;6214;48.012;7.862;2023-07-28T13:40:15;5.75;;;1.75;;
12302;SDS011;6214;48.012;7.862;2023-07-28T13:42:43;4.90;;;1.70;;
12302;SDS011;6214;48.012;7.862;2023-07-28T13:45:10;5.20;;;1.80;;
12302;SDS011;6214;48.012;7.862;2023-07-28T13:47:37;4.95;;;1.65;;
12302;SDS011;6214;48.012;7.862;2023-07-28T13:50:04;4.70;;;1.50;;
12302;SDS011;6214;48.012;7.862;2023-07-28T13:52:31;4.50;;;1.40;;
12302;SDS011;6214;48.012;7.862;2023-07-28T13:54:58;4.90;;;1.40;;
12302;SDS011;6214;48.012;7.862;2023-07-28T13:57:28;4.70;;;1.40;;
12302;SDS011;6214;48.012;7.862;2023-07-28T13:59:55;4.60;;;1.48;;
12302;SDS011;6214;48.012;7.862;2023-07-28T14:02:22;5.00;;;1.40;;
12302;SDS011;6214;48.012;7.862;2023-07-28T14:04:49;4.65;;;1.42;;
12302;SDS011;6214;48.012;7.862;2023-07-28T14:07:16;5.10;;;1.70;;
12302;SDS011;6214;48.012;7.862;2023-07-28T14:09:44;5.20;;;1.60;;
12302;SDS011;6214;48.012;7.862;2023-07-28T14:12:11;4.70;;;1.50;;
12302;SDS011;6214;48.012;7.862;2023-07-28T14:14:38;4.80;;;1.50;;
12302;SDS011;6214;48.012;7.862;2023-07-28T14:17:05;4.63;;;1.50;;
12302;SDS011;6214;48.012;7.862;2023-07-28T14:19:32;4.72;;;1.30;;
12302;SDS011;6214;48.012;7.862;2023-07-28T14:21:59;5.60;;;1.60;;
12302;SDS011;6214;48.012;7.862;2023-07-28T14:24:26;4.50;;;1.50;;
12302;SDS011;6214;48.012;7.862;2023-07-28T14:26:54;4.90;;;1.60;;
12302;SDS011;6214;48.012;7.862;2023-07-28T14:29:24;5.07;;;1.60;;
12302;SDS011;6214;48.012;7.862;2023-07-28T14:31:51;4.60;;;1.43;;
12302;SDS011;6214;48.012;7.862;2023-07-28T14:34:18;5.00;;;1.50;;
12302;SDS011;6214;48.012;7.862;2023-07-28T14:36:45;4.60;;;1.40;;
12302;SDS011;6214;48.012;7.862;2023-07-28T14:39:12;4.80;;;1.50;;
12302;SDS011;6214;48.012;7.862;2023-07-28T14:41:39;4.80;;;1.40;;
12302;SDS011;6214;48.012;7.862;2023-07-28T14:44:06;4.50;;;1.30;;
12302;SDS011;6214;48.012;7.862;2023-07-28T14:46:33;5.40;;;1.50;;
12302;SDS011;6214;48.012;7.862;2023-07-28T14:49:00;4.38;;;1.30;;
12302;SDS011;6214;48.012;7.862;2023-07-28T14:51:28;4.43;;;1.23;;
12302;SDS011;6214;48.012;7.862;2023-07-28T14:53:55;4.80;;;1.30;;
12302;SDS011;6214;48.012;7.862;2023-07-28T14:56:22;4.70;;;1.38;;
12302;SDS011;6214;48.012;7.862;2023-07-28T14:58:50;4.60;;;1.35;;
12302;SDS011;6214;48.012;7.862;2023-07-28T15:01:18;4.70;;;1.50;;
12302;SDS011;6214;48.012;7.862;2023-07-28T15:03:45;4.90;;;1.50;;
12302;SDS011;6214;48.012;7.862;2023-07-28T15:06:12;4.60;;;1.30;;
12302;SDS011;6214;48.012;7.862;2023-07-28T15:08:39;4.75;;;1.50;;
12302;SDS011;6214;48.012;7.862;2023-07-28T15:11:07;4.93;;;1.50;;
12302;SDS011;6214;48.012;7.862;2023-07-28T15:13:34;5.00;;;1.50;;
12302;SDS011;6214;48.012;7.862;2023-07-28T15:16:01;5.70;;;1.50;;
12302;SDS011;6214;48.012;7.862;2023-07-28T15:18:28;5.05;;;1.60;;